Santiago, Dominican Republic

5:07 AM AST on February 07, 2016 (GMT -0400)
PUCMM Santiago | | Change Station
CLOSE
Current Station
Personal Weather Station
Location: Santiago De Los Caballeros, SANTIAGO
Elevation: 653 ft
Nearby Weather Stations

Elev 653 ft 19.44 °N, 70.68 °W | Updated 23 seconds ago

Partly Cloudy
Partly Cloudy
69.3 °F
Feels Like 69.3 °F
N
0.0
Wind Variable Wind from SE
Gusts 0.0 mph

Today
High -- | Low -- °F
--% Chance of Precip.
Yesterday
High -- | Low -- °F
Precip. -- in
Pressure 29.98 in
Visibility 6.2 miles
Clouds Few 1800 ft
Dew Point 62 °F
Humidity 78%
Rainfall 0.00 in
Snow Depth Not available.
7:15 AM 6:38 PM
Waning Crescent, 2% visible
METAR MDST 070900Z 00000KT 9999 FEW018 19/19 Q1014 NOSIG METAR MDPC 070900Z 00000KT 9999 FEW018 23/22 Q1015
Pressure 29.98 in
Visibility 6.2 miles
Clouds Few 1800 ft
Dew Point 62 °F
Humidity 78%
Rainfall 0.00 in
Snow Depth Not available.
7:15 AM 6:38 PM
Waning Crescent, 2% visible
METAR MDST 070900Z 00000KT 9999 FEW018 19/19 Q1014 NOSIG METAR MDPC 070900Z 00000KT 9999 FEW018 23/22 Q1015

10-Day Weather Forecast

No radar image for this location.
×

Almanac

Astronomy

Feb. 07, 2016 Rise Set
Actual Time
Civil Twilight
Nautical Twilight
Astronomical Twilight
Moon
Length of Visible Light
Length of Day
Tomorrow will be .
, % of the Moon is Illuminated

Today's Extremes

Country Highs Country Lows

Community

WunderPhotos

Upload Photos

1,891,171 photos uploaded!

WunderBlog® & News

Nearby

Air Quality

  Air Quality AQ Index Pollutant
Not available.

Snow Depth

Station Depth Elevation

Earthquake Activity

City Distance Mag. Time & Date
Minimum magnitude displayed is 2.5.

Coastal Water Temperatures

Place Temperature

Stations

Nearby Weather Stations

Station Location Temp. Windchill Dew Point Humidity Wind Precip. Elev Updated Type